Aviation Digital Data Service (ADDS)

Output produced by METARs form (1300 UTC 19 January 2019)
found at http://www.aviationweather.gov/metar/data/
 
METAR text: EDDS 191250Z 14004KT 080V180 9999 OVC015 M03/M06 Q1014 TEMPO BKN014
Conditions at: EDDS (STUTTGART/ECHTER, DE) observed 1250 UTC 19 January 2019
Temperature: -3.0°C (27°F)
Dewpoint: -6.0°C (21°F) [RH = 80%]
Pressure (altimeter): 29.94 inches Hg (1014.0 mb)
Winds: from the SE (140 degrees) at 5 MPH (4 knots; 2.1 m/s)
Visibility: 6 or more miles (10+ km)
Ceiling: 1500 feet AGL
Clouds: overcast cloud deck at 1500 feet AGL
Weather: no significant weather observed at this time

METAR text: EDDS 191220Z 15005KT 110V180 9999 OVC015 M03/M06 Q1014 TEMPO BKN014
Conditions at: EDDS (STUTTGART/ECHTER, DE) observed 1220 UTC 19 January 2019
Temperature: -3.0°C (27°F)
Dewpoint: -6.0°C (21°F) [RH = 80%]
Pressure (altimeter): 29.94 inches Hg (1014.0 mb)
Winds: from the SSE (150 degrees) at 6 MPH (5 knots; 2.6 m/s)
Visibility: 6 or more miles (10+ km)
Ceiling: 1500 feet AGL
Clouds: overcast cloud deck at 1500 feet AGL
Weather: no significant weather observed at this time

METAR text: EDDS 191150Z 17004KT 130V200 9999 OVC016 M03/M06 Q1015 TEMPO BKN014
Conditions at: EDDS (STUTTGART/ECHTER, DE) observed 1150 UTC 19 January 2019
Temperature: -3.0°C (27°F)
Dewpoint: -6.0°C (21°F) [RH = 80%]
Pressure (altimeter): 29.97 inches Hg (1015.0 mb)
Winds: from the S (170 degrees) at 5 MPH (4 knots; 2.1 m/s)
Visibility: 6 or more miles (10+ km)
Ceiling: 1600 feet AGL
Clouds: overcast cloud deck at 1600 feet AGL
Weather: no significant weather observed at this time

METAR text: EDDS 191120Z 12005KT 060V170 9999 BKN016 M03/M06 Q1015 TEMPO BKN014
Conditions at: EDDS (STUTTGART/ECHTER, DE) observed 1120 UTC 19 January 2019
Temperature: -3.0°C (27°F)
Dewpoint: -6.0°C (21°F) [RH = 80%]
Pressure (altimeter): 29.97 inches Hg (1015.0 mb)
Winds: from the ESE (120 degrees) at 6 MPH (5 knots; 2.6 m/s)
Visibility: 6 or more miles (10+ km)
Ceiling: 1600 feet AGL
Clouds: broken clouds at 1600 feet AGL
Weather: no significant weather observed at this time

METAR text: EDDS 191050Z 16006KT 120V190 9999 FEW012 BKN016 M03/M06 Q1015 TEMPO BKN014
Conditions at: EDDS (STUTTGART/ECHTER, DE) observed 1050 UTC 19 January 2019
Temperature: -3.0°C (27°F)
Dewpoint: -6.0°C (21°F) [RH = 80%]
Pressure (altimeter): 29.97 inches Hg (1015.0 mb)
Winds: from the SSE (160 degrees) at 7 MPH (6 knots; 3.1 m/s)
Visibility: 6 or more miles (10+ km)
Ceiling: 1600 feet AGL
Clouds: few clouds at 1200 feet AGL
broken clouds at 1600 feet AGL
Weather: no significant weather observed at this time

METAR text: EDDS 191020Z 13005KT 100V190 9999 SCT015 BKN018 M03/M07 Q1016 TEMPO BKN014
Conditions at: EDDS (STUTTGART/ECHTER, DE) observed 1020 UTC 19 January 2019
Temperature: -3.0°C (27°F)
Dewpoint: -7.0°C (19°F) [RH = 74%]
Pressure (altimeter): 30.00 inches Hg (1016.0 mb)
Winds: from the SE (130 degrees) at 6 MPH (5 knots; 2.6 m/s)
Visibility: 6 or more miles (10+ km)
Ceiling: 1800 feet AGL
Clouds: scattered clouds at 1500 feet AGL
broken clouds at 1800 feet AGL
Weather: no significant weather observed at this time

METAR text: EDDS 190950Z 16005KT 120V180 9999 FEW012 BKN018 M03/M06 Q1016 NOSIG
Conditions at: EDDS (STUTTGART/ECHTER, DE) observed 0950 UTC 19 January 2019
Temperature: -3.0°C (27°F)
Dewpoint: -6.0°C (21°F) [RH = 80%]
Pressure (altimeter): 30.00 inches Hg (1016.0 mb)
Winds: from the SSE (160 degrees) at 6 MPH (5 knots; 2.6 m/s)
Visibility: 6 or more miles (10+ km)
Ceiling: 1800 feet AGL
Clouds: few clouds at 1200 feet AGL
broken clouds at 1800 feet AGL
Weather: no significant weather observed at this time

METAR text: EDDS 190920Z 17003KT 130V250 9999 FEW012 SCT018 M03/M06 Q1016 NOSIG
Conditions at: EDDS (STUTTGART/ECHTER, DE) observed 0920 UTC 19 January 2019
Temperature: -3.0°C (27°F)
Dewpoint: -6.0°C (21°F) [RH = 80%]
Pressure (altimeter): 30.00 inches Hg (1016.0 mb)
Winds: from the S (170 degrees) at 3 MPH (3 knots; 1.5 m/s)
Visibility: 6 or more miles (10+ km)
Ceiling: at least 12,000 feet AGL
Clouds: few clouds at 1200 feet AGL
scattered clouds at 1800 feet AGL
Weather: no significant weather observed at this time

METAR text: EDDS 190850Z 14004KT 080V160 9999 FEW020 M03/M06 Q1016 NOSIG
Conditions at: EDDS (STUTTGART/ECHTER, DE) observed 0850 UTC 19 January 2019
Temperature: -3.0°C (27°F)
Dewpoint: -6.0°C (21°F) [RH = 80%]
Pressure (altimeter): 30.00 inches Hg (1016.0 mb)
Winds: from the SE (140 degrees) at 5 MPH (4 knots; 2.1 m/s)
Visibility: 6 or more miles (10+ km)
Ceiling: at least 12,000 feet AGL
Clouds: few clouds at 2000 feet AGL
Weather: no significant weather observed at this time

METAR text: EDDS 190820Z 08003KT CAVOK M04/M06 Q1016 NOSIG
Conditions at: EDDS (STUTTGART/ECHTER, DE) observed 0820 UTC 19 January 2019
Temperature: -4.0°C (25°F)
Dewpoint: -6.0°C (21°F) [RH = 86%]
Pressure (altimeter): 30.00 inches Hg (1016.0 mb)
Winds: from the E (80 degrees) at 3 MPH (3 knots; 1.5 m/s)
Visibility: 6 or more miles (10+ km)
Ceiling: ceiling and visibility are OK
Clouds: unknown
Weather: no significant weather observed at this time

METAR text: EDDS 190750Z VRB01KT CAVOK M04/M06 Q1016 NOSIG
Conditions at: EDDS (STUTTGART/ECHTER, DE) observed 0750 UTC 19 January 2019
Temperature: -4.0°C (25°F)
Dewpoint: -6.0°C (21°F) [RH = 86%]
Pressure (altimeter): 30.00 inches Hg (1016.0 mb)
Winds: variable direction winds at 1 MPH (1 knots; 0.5 m/s)
Visibility: 6 or more miles (10+ km)
Ceiling: ceiling and visibility are OK
Clouds: unknown
Weather: no significant weather observed at this time

METAR text: EDDS 190720Z VRB01KT CAVOK M05/M07 Q1015 NOSIG
Conditions at: EDDS (STUTTGART/ECHTER, DE) observed 0720 UTC 19 January 2019
Temperature: -5.0°C (23°F)
Dewpoint: -7.0°C (19°F) [RH = 86%]
Pressure (altimeter): 29.97 inches Hg (1015.0 mb)
Winds: variable direction winds at 1 MPH (1 knots; 0.5 m/s)
Visibility: 6 or more miles (10+ km)
Ceiling: ceiling and visibility are OK
Clouds: unknown
Weather: no significant weather observed at this time

METAR text: EDDS 190650Z 07002KT CAVOK M05/M06 Q1015 NOSIG
Conditions at: EDDS (STUTTGART/ECHTER, DE) observed 0650 UTC 19 January 2019
Temperature: -5.0°C (23°F)
Dewpoint: -6.0°C (21°F) [RH = 93%]
Pressure (altimeter): 29.97 inches Hg (1015.0 mb)
Winds: from the ENE (70 degrees) at 2 MPH (2 knots; 1.0 m/s)
Visibility: 6 or more miles (10+ km)
Ceiling: ceiling and visibility are OK
Clouds: unknown
Weather: no significant weather observed at this time

METAR text: EDDS 190620Z VRB01KT CAVOK M05/M07 Q1016 NOSIG
Conditions at: EDDS (STUTTGART/ECHTER, DE) observed 0620 UTC 19 January 2019
Temperature: -5.0°C (23°F)
Dewpoint: -7.0°C (19°F) [RH = 86%]
Pressure (altimeter): 30.00 inches Hg (1016.0 mb)
Winds: variable direction winds at 1 MPH (1 knots; 0.5 m/s)
Visibility: 6 or more miles (10+ km)
Ceiling: ceiling and visibility are OK
Clouds: unknown
Weather: no significant weather observed at this time

METAR text: EDDS 190550Z VRB01KT CAVOK M06/M07 Q1016 NOSIG
Conditions at: EDDS (STUTTGART/ECHTER, DE) observed 0550 UTC 19 January 2019
Temperature: -6.0°C (21°F)
Dewpoint: -7.0°C (19°F) [RH = 93%]
Pressure (altimeter): 30.00 inches Hg (1016.0 mb)
Winds: variable direction winds at 1 MPH (1 knots; 0.5 m/s)
Visibility: 6 or more miles (10+ km)
Ceiling: ceiling and visibility are OK
Clouds: unknown
Weather: no significant weather observed at this time

METAR text: EDDS 190520Z VRB01KT CAVOK M05/M06 Q1016 NOSIG
Conditions at: EDDS (STUTTGART/ECHTER, DE) observed 0520 UTC 19 January 2019
Temperature: -5.0°C (23°F)
Dewpoint: -6.0°C (21°F) [RH = 93%]
Pressure (altimeter): 30.00 inches Hg (1016.0 mb)
Winds: variable direction winds at 1 MPH (1 knots; 0.5 m/s)
Visibility: 6 or more miles (10+ km)
Ceiling: ceiling and visibility are OK
Clouds: unknown
Weather: no significant weather observed at this time

METAR text: EDDS 190450Z VRB01KT CAVOK M06/M07 Q1016
Conditions at: EDDS (STUTTGART/ECHTER, DE) observed 0450 UTC 19 January 2019
Temperature: -6.0°C (21°F)
Dewpoint: -7.0°C (19°F) [RH = 93%]
Pressure (altimeter): 30.00 inches Hg (1016.0 mb)
Winds: variable direction winds at 1 MPH (1 knots; 0.5 m/s)
Visibility: 6 or more miles (10+ km)
Ceiling: ceiling and visibility are OK
Clouds: unknown
Weather: no significant weather observed at this time

METAR text: EDDS 190420Z 34001KT CAVOK M05/M07 Q1016
Conditions at: EDDS (STUTTGART/ECHTER, DE) observed 0420 UTC 19 January 2019
Temperature: -5.0°C (23°F)
Dewpoint: -7.0°C (19°F) [RH = 86%]
Pressure (altimeter): 30.00 inches Hg (1016.0 mb)
Winds: from the NNW (340 degrees) at 1 MPH (1 knots; 0.5 m/s)
Visibility: 6 or more miles (10+ km)
Ceiling: ceiling and visibility are OK
Clouds: unknown
Weather: no significant weather observed at this time

METAR text: EDDS 190350Z VRB01KT CAVOK M05/M07 Q1016
Conditions at: EDDS (STUTTGART/ECHTER, DE) observed 0350 UTC 19 January 2019
Temperature: -5.0°C (23°F)
Dewpoint: -7.0°C (19°F) [RH = 86%]
Pressure (altimeter): 30.00 inches Hg (1016.0 mb)
Winds: variable direction winds at 1 MPH (1 knots; 0.5 m/s)
Visibility: 6 or more miles (10+ km)
Ceiling: ceiling and visibility are OK
Clouds: unknown
Weather: no significant weather observed at this time

METAR text: EDDS 190320Z VRB01KT CAVOK M06/M07 Q1016
Conditions at: EDDS (STUTTGART/ECHTER, DE) observed 0320 UTC 19 January 2019
Temperature: -6.0°C (21°F)
Dewpoint: -7.0°C (19°F) [RH = 93%]
Pressure (altimeter): 30.00 inches Hg (1016.0 mb)
Winds: variable direction winds at 1 MPH (1 knots; 0.5 m/s)
Visibility: 6 or more miles (10+ km)
Ceiling: ceiling and visibility are OK
Clouds: unknown
Weather: no significant weather observed at this time

METAR text: EDDS 190250Z 26001KT CAVOK M06/M08 Q1017
Conditions at: EDDS (STUTTGART/ECHTER, DE) observed 0250 UTC 19 January 2019
Temperature: -6.0°C (21°F)
Dewpoint: -8.0°C (18°F) [RH = 86%]
Pressure (altimeter): 30.03 inches Hg (1017.0 mb)
Winds: from the W (260 degrees) at 1 MPH (1 knots; 0.5 m/s)
Visibility: 6 or more miles (10+ km)
Ceiling: ceiling and visibility are OK
Clouds: unknown
Weather: no significant weather observed at this time

METAR text: EDDS 190220Z VRB01KT CAVOK M04/M06 Q1017
Conditions at: EDDS (STUTTGART/ECHTER, DE) observed 0220 UTC 19 January 2019
Temperature: -4.0°C (25°F)
Dewpoint: -6.0°C (21°F) [RH = 86%]
Pressure (altimeter): 30.03 inches Hg (1017.0 mb)
Winds: variable direction winds at 1 MPH (1 knots; 0.5 m/s)
Visibility: 6 or more miles (10+ km)
Ceiling: ceiling and visibility are OK
Clouds: unknown
Weather: no significant weather observed at this time

METAR text: EDDS 190150Z VRB01KT CAVOK M03/M05 Q1017
Conditions at: EDDS (STUTTGART/ECHTER, DE) observed 0150 UTC 19 January 2019
Temperature: -3.0°C (27°F)
Dewpoint: -5.0°C (23°F) [RH = 86%]
Pressure (altimeter): 30.03 inches Hg (1017.0 mb)
Winds: variable direction winds at 1 MPH (1 knots; 0.5 m/s)
Visibility: 6 or more miles (10+ km)
Ceiling: ceiling and visibility are OK
Clouds: unknown
Weather: no significant weather observed at this time

METAR text: EDDS 190120Z VRB02KT CAVOK M04/M06 Q1017
Conditions at: EDDS (STUTTGART/ECHTER, DE) observed 0120 UTC 19 January 2019
Temperature: -4.0°C (25°F)
Dewpoint: -6.0°C (21°F) [RH = 86%]
Pressure (altimeter): 30.03 inches Hg (1017.0 mb)
Winds: variable direction winds at 2 MPH (2 knots; 1.0 m/s)
Visibility: 6 or more miles (10+ km)
Ceiling: ceiling and visibility are OK
Clouds: unknown
Weather: no significant weather observed at this time

METAR text: EDDS 190050Z VRB01KT CAVOK M04/M05 Q1017
Conditions at: EDDS (STUTTGART/ECHTER, DE) observed 0050 UTC 19 January 2019
Temperature: -4.0°C (25°F)
Dewpoint: -5.0°C (23°F) [RH = 93%]
Pressure (altimeter): 30.03 inches Hg (1017.0 mb)
Winds: variable direction winds at 1 MPH (1 knots; 0.5 m/s)
Visibility: 6 or more miles (10+ km)
Ceiling: ceiling and visibility are OK
Clouds: unknown
Weather: no significant weather observed at this time

METAR text: EDDS 190020Z VRB01KT CAVOK M04/M05 Q1017
Conditions at: EDDS (STUTTGART/ECHTER, DE) observed 0020 UTC 19 January 2019
Temperature: -4.0°C (25°F)
Dewpoint: -5.0°C (23°F) [RH = 93%]
Pressure (altimeter): 30.03 inches Hg (1017.0 mb)
Winds: variable direction winds at 1 MPH (1 knots; 0.5 m/s)
Visibility: 6 or more miles (10+ km)
Ceiling: ceiling and visibility are OK
Clouds: unknown
Weather: no significant weather observed at this time

METAR text: EDDS 182350Z VRB02KT CAVOK M03/M05 Q1017
Conditions at: EDDS (STUTTGART/ECHTER, DE) observed 2350 UTC 18 January 2019
Temperature: -3.0°C (27°F)
Dewpoint: -5.0°C (23°F) [RH = 86%]
Pressure (altimeter): 30.03 inches Hg (1017.0 mb)
Winds: variable direction winds at 2 MPH (2 knots; 1.0 m/s)
Visibility: 6 or more miles (10+ km)
Ceiling: ceiling and visibility are OK
Clouds: unknown
Weather: no significant weather observed at this time

METAR text: EDDS 182320Z 08003KT 050V110 CAVOK M04/M05 Q1018
Conditions at: EDDS (STUTTGART/ECHTER, DE) observed 2320 UTC 18 January 2019
Temperature: -4.0°C (25°F)
Dewpoint: -5.0°C (23°F) [RH = 93%]
Pressure (altimeter): 30.06 inches Hg (1018.0 mb)
Winds: from the E (80 degrees) at 3 MPH (3 knots; 1.5 m/s)
Visibility: 6 or more miles (10+ km)
Ceiling: ceiling and visibility are OK
Clouds: unknown
Weather: no significant weather observed at this time

METAR text: EDDS 182250Z 07002KT CAVOK M04/M05 Q1018
Conditions at: EDDS (STUTTGART/ECHTER, DE) observed 2250 UTC 18 January 2019
Temperature: -4.0°C (25°F)
Dewpoint: -5.0°C (23°F) [RH = 93%]
Pressure (altimeter): 30.06 inches Hg (1018.0 mb)
Winds: from the ENE (70 degrees) at 2 MPH (2 knots; 1.0 m/s)
Visibility: 6 or more miles (10+ km)
Ceiling: ceiling and visibility are OK
Clouds: unknown
Weather: no significant weather observed at this time

METAR text: EDDS 182220Z 08004KT CAVOK M04/M05 Q1018
Conditions at: EDDS (STUTTGART/ECHTER, DE) observed 2220 UTC 18 January 2019
Temperature: -4.0°C (25°F)
Dewpoint: -5.0°C (23°F) [RH = 93%]
Pressure (altimeter): 30.06 inches Hg (1018.0 mb)
Winds: from the E (80 degrees) at 5 MPH (4 knots; 2.1 m/s)
Visibility: 6 or more miles (10+ km)
Ceiling: ceiling and visibility are OK
Clouds: unknown
Weather: no significant weather observed at this time

METAR text: EDDS 182150Z 07004KT CAVOK M04/M05 Q1018
Conditions at: EDDS (STUTTGART/ECHTER, DE) observed 2150 UTC 18 January 2019
Temperature: -4.0°C (25°F)
Dewpoint: -5.0°C (23°F) [RH = 93%]
Pressure (altimeter): 30.06 inches Hg (1018.0 mb)
Winds: from the ENE (70 degrees) at 5 MPH (4 knots; 2.1 m/s)
Visibility: 6 or more miles (10+ km)
Ceiling: ceiling and visibility are OK
Clouds: unknown
Weather: no significant weather observed at this time

METAR text: EDDS 182120Z 08004KT CAVOK M04/M05 Q1018
Conditions at: EDDS (STUTTGART/ECHTER, DE) observed 2120 UTC 18 January 2019
Temperature: -4.0°C (25°F)
Dewpoint: -5.0°C (23°F) [RH = 93%]
Pressure (altimeter): 30.06 inches Hg (1018.0 mb)
Winds: from the E (80 degrees) at 5 MPH (4 knots; 2.1 m/s)
Visibility: 6 or more miles (10+ km)
Ceiling: ceiling and visibility are OK
Clouds: unknown
Weather: no significant weather observed at this time

METAR text: EDDS 182050Z 09005KT CAVOK M03/M04 Q1018 NOSIG
Conditions at: EDDS (STUTTGART/ECHTER, DE) observed 2050 UTC 18 January 2019
Temperature: -3.0°C (27°F)
Dewpoint: -4.0°C (25°F) [RH = 93%]
Pressure (altimeter): 30.06 inches Hg (1018.0 mb)
Winds: from the E (90 degrees) at 6 MPH (5 knots; 2.6 m/s)
Visibility: 6 or more miles (10+ km)
Ceiling: ceiling and visibility are OK
Clouds: unknown
Weather: no significant weather observed at this time

METAR text: EDDS 182020Z 09002KT CAVOK M02/M03 Q1018 NOSIG
Conditions at: EDDS (STUTTGART/ECHTER, DE) observed 2020 UTC 18 January 2019
Temperature: -2.0°C (28°F)
Dewpoint: -3.0°C (27°F) [RH = 93%]
Pressure (altimeter): 30.06 inches Hg (1018.0 mb)
Winds: from the E (90 degrees) at 2 MPH (2 knots; 1.0 m/s)
Visibility: 6 or more miles (10+ km)
Ceiling: ceiling and visibility are OK
Clouds: unknown
Weather: no significant weather observed at this time

METAR text: EDDS 181950Z 08003KT CAVOK M02/M04 Q1018 NOSIG
Conditions at: EDDS (STUTTGART/ECHTER, DE) observed 1950 UTC 18 January 2019
Temperature: -2.0°C (28°F)
Dewpoint: -4.0°C (25°F) [RH = 86%]
Pressure (altimeter): 30.06 inches Hg (1018.0 mb)
Winds: from the E (80 degrees) at 3 MPH (3 knots; 1.5 m/s)
Visibility: 6 or more miles (10+ km)
Ceiling: ceiling and visibility are OK
Clouds: unknown
Weather: no significant weather observed at this time

METAR text: EDDS 181920Z 08003KT CAVOK M02/M03 Q1018 NOSIG
Conditions at: EDDS (STUTTGART/ECHTER, DE) observed 1920 UTC 18 January 2019
Temperature: -2.0°C (28°F)
Dewpoint: -3.0°C (27°F) [RH = 93%]
Pressure (altimeter): 30.06 inches Hg (1018.0 mb)
Winds: from the E (80 degrees) at 3 MPH (3 knots; 1.5 m/s)
Visibility: 6 or more miles (10+ km)
Ceiling: ceiling and visibility are OK
Clouds: unknown
Weather: no significant weather observed at this time

METAR text: EDDS 181850Z 08003KT 060V130 CAVOK M01/M03 Q1018 NOSIG
Conditions at: EDDS (STUTTGART/ECHTER, DE) observed 1850 UTC 18 January 2019
Temperature: -1.0°C (30°F)
Dewpoint: -3.0°C (27°F) [RH = 86%]
Pressure (altimeter): 30.06 inches Hg (1018.0 mb)
Winds: from the E (80 degrees) at 3 MPH (3 knots; 1.5 m/s)
Visibility: 6 or more miles (10+ km)
Ceiling: ceiling and visibility are OK
Clouds: unknown
Weather: no significant weather observed at this time

METAR text: EDDS 181820Z 02003KT 340V050 CAVOK M01/M03 Q1018 NOSIG
Conditions at: EDDS (STUTTGART/ECHTER, DE) observed 1820 UTC 18 January 2019
Temperature: -1.0°C (30°F)
Dewpoint: -3.0°C (27°F) [RH = 86%]
Pressure (altimeter): 30.06 inches Hg (1018.0 mb)
Winds: from the NNE (20 degrees) at 3 MPH (3 knots; 1.5 m/s)
Visibility: 6 or more miles (10+ km)
Ceiling: ceiling and visibility are OK
Clouds: unknown
Weather: no significant weather observed at this time

METAR text: EDDS 181750Z 05003KT CAVOK M01/M03 Q1018 NOSIG
Conditions at: EDDS (STUTTGART/ECHTER, DE) observed 1750 UTC 18 January 2019
Temperature: -1.0°C (30°F)
Dewpoint: -3.0°C (27°F) [RH = 86%]
Pressure (altimeter): 30.06 inches Hg (1018.0 mb)
Winds: from the NE (50 degrees) at 3 MPH (3 knots; 1.5 m/s)
Visibility: 6 or more miles (10+ km)
Ceiling: ceiling and visibility are OK
Clouds: unknown
Weather: no significant weather observed at this time

METAR text: EDDS 181720Z 05003KT CAVOK M01/M03 Q1018 NOSIG
Conditions at: EDDS (STUTTGART/ECHTER, DE) observed 1720 UTC 18 January 2019
Temperature: -1.0°C (30°F)
Dewpoint: -3.0°C (27°F) [RH = 86%]
Pressure (altimeter): 30.06 inches Hg (1018.0 mb)
Winds: from the NE (50 degrees) at 3 MPH (3 knots; 1.5 m/s)
Visibility: 6 or more miles (10+ km)
Ceiling: ceiling and visibility are OK
Clouds: unknown
Weather: no significant weather observed at this time

METAR text: EDDS 181650Z 06003KT CAVOK M01/M03 Q1018 NOSIG
Conditions at: EDDS (STUTTGART/ECHTER, DE) observed 1650 UTC 18 January 2019
Temperature: -1.0°C (30°F)
Dewpoint: -3.0°C (27°F) [RH = 86%]
Pressure (altimeter): 30.06 inches Hg (1018.0 mb)
Winds: from the ENE (60 degrees) at 3 MPH (3 knots; 1.5 m/s)
Visibility: 6 or more miles (10+ km)
Ceiling: ceiling and visibility are OK
Clouds: unknown
Weather: no significant weather observed at this time

METAR text: EDDS 181620Z 06003KT 9999 FEW020 00/M04 Q1019 NOSIG
Conditions at: EDDS (STUTTGART/ECHTER, DE) observed 1620 UTC 18 January 2019
Temperature: 0.0°C (32°F)
Dewpoint: -4.0°C (25°F) [RH = 74%]
Pressure (altimeter): 30.09 inches Hg (1019.0 mb)
Winds: from the ENE (60 degrees) at 3 MPH (3 knots; 1.5 m/s)
Visibility: 6 or more miles (10+ km)
Ceiling: at least 12,000 feet AGL
Clouds: few clouds at 2000 feet AGL
Weather: no significant weather observed at this time

METAR text: EDDS 181550Z 08003KT 9999 FEW020 SCT047 00/M03 Q1019 NOSIG
Conditions at: EDDS (STUTTGART/ECHTER, DE) observed 1550 UTC 18 January 2019
Temperature: 0.0°C (32°F)
Dewpoint: -3.0°C (27°F) [RH = 80%]
Pressure (altimeter): 30.09 inches Hg (1019.0 mb)
Winds: from the E (80 degrees) at 3 MPH (3 knots; 1.5 m/s)
Visibility: 6 or more miles (10+ km)
Ceiling: at least 12,000 feet AGL
Clouds: few clouds at 2000 feet AGL
scattered clouds at 4700 feet AGL
Weather: no significant weather observed at this time

METAR text: EDDS 181520Z 05002KT 9999 FEW020 01/M03 Q1019 NOSIG
Conditions at: EDDS (STUTTGART/ECHTER, DE) observed 1520 UTC 18 January 2019
Temperature: 1.0°C (34°F)
Dewpoint: -3.0°C (27°F) [RH = 75%]
Pressure (altimeter): 30.09 inches Hg (1019.0 mb)
Winds: from the NE (50 degrees) at 2 MPH (2 knots; 1.0 m/s)
Visibility: 6 or more miles (10+ km)
Ceiling: at least 12,000 feet AGL
Clouds: few clouds at 2000 feet AGL
Weather: no significant weather observed at this time

METAR text: EDDS 181450Z 08002KT 9999 FEW020 01/M03 Q1019 NOSIG
Conditions at: EDDS (STUTTGART/ECHTER, DE) observed 1450 UTC 18 January 2019
Temperature: 1.0°C (34°F)
Dewpoint: -3.0°C (27°F) [RH = 75%]
Pressure (altimeter): 30.09 inches Hg (1019.0 mb)
Winds: from the E (80 degrees) at 2 MPH (2 knots; 1.0 m/s)
Visibility: 6 or more miles (10+ km)
Ceiling: at least 12,000 feet AGL
Clouds: few clouds at 2000 feet AGL
Weather: no significant weather observed at this time

METAR text: EDDS 181420Z 31001KT 9999 FEW010 01/M04 Q1019 NOSIG
Conditions at: EDDS (STUTTGART/ECHTER, DE) observed 1420 UTC 18 January 2019
Temperature: 1.0°C (34°F)
Dewpoint: -4.0°C (25°F) [RH = 69%]
Pressure (altimeter): 30.09 inches Hg (1019.0 mb)
Winds: from the NW (310 degrees) at 1 MPH (1 knots; 0.5 m/s)
Visibility: 6 or more miles (10+ km)
Ceiling: at least 12,000 feet AGL
Clouds: few clouds at 1000 feet AGL
Weather: no significant weather observed at this time

METAR text: EDDS 181350Z VRB01KT 9999 FEW010 SCT020TCU BKN045 01/M03 Q1019 NOSIG
Conditions at: EDDS (STUTTGART/ECHTER, DE) observed 1350 UTC 18 January 2019
Temperature: 1.0°C (34°F)
Dewpoint: -3.0°C (27°F) [RH = 75%]
Pressure (altimeter): 30.09 inches Hg (1019.0 mb)
Winds: variable direction winds at 1 MPH (1 knots; 0.5 m/s)
Visibility: 6 or more miles (10+ km)
Ceiling: 4500 feet AGL
Clouds: few clouds at 1000 feet AGL
scattered clouds at 2000 feet AGL
broken clouds at 4500 feet AGL
Weather: no significant weather observed at this time

METAR text: EDDS 181320Z 05003KT 010V100 9999 SCT009 FEW020CB BKN037 01/M02 Q1019 NOSIG
Conditions at: EDDS (STUTTGART/ECHTER, DE) observed 1320 UTC 18 January 2019
Temperature: 1.0°C (34°F)
Dewpoint: -2.0°C (28°F) [RH = 80%]
Pressure (altimeter): 30.09 inches Hg (1019.0 mb)
Winds: from the NE (50 degrees) at 3 MPH (3 knots; 1.5 m/s)
Visibility: 6 or more miles (10+ km)
Ceiling: 3700 feet AGL
Clouds: scattered clouds at 900 feet AGL
few clouds at 2000 feet AGL
broken clouds at 3700 feet AGL
Weather: no significant weather observed at this time

METAR text: EDDS 181250Z 07003KT 9000 -SHSN FEW010 SCT020CB BKN037 00/M02 Q1019 NOSIG
Conditions at: EDDS (STUTTGART/ECHTER, DE) observed 1250 UTC 18 January 2019
Temperature: 0.0°C (32°F)
Dewpoint: -2.0°C (28°F) [RH = 86%]
Pressure (altimeter): 30.09 inches Hg (1019.0 mb)
Winds: from the ENE (70 degrees) at 3 MPH (3 knots; 1.5 m/s)
Visibility: 6 miles ( 9 km)
Ceiling: 3700 feet AGL
Clouds: few clouds at 1000 feet AGL
scattered clouds at 2000 feet AGL
broken clouds at 3700 feet AGL
Weather: -SHSN  (light snow showers)

METAR text: EDDS 181220Z 06003KT 9999 2800E -SHSN FEW010 SCT016CB BKN037 M00/M02 Q1019 NOSIG
Conditions at: EDDS (STUTTGART/ECHTER, DE) observed 1220 UTC 18 January 2019
Temperature: 0.0°C (32°F)
Dewpoint: -2.0°C (28°F) [RH = 86%]
Pressure (altimeter): 30.09 inches Hg (1019.0 mb)
Winds: from the ENE (60 degrees) at 3 MPH (3 knots; 1.5 m/s)
Visibility: 6 or more miles (10+ km)
Ceiling: 3700 feet AGL
Clouds: few clouds at 1000 feet AGL
scattered clouds at 1600 feet AGL
broken clouds at 3700 feet AGL
Weather: -SHSN  (light snow showers)

METAR text: EDDS 181150Z 07004KT 9999 -SHSN FEW011 SCT021CB BKN042 00/M02 Q1019 NOSIG
Conditions at: EDDS (STUTTGART/ECHTER, DE) observed 1150 UTC 18 January 2019
Temperature: 0.0°C (32°F)
Dewpoint: -2.0°C (28°F) [RH = 86%]
Pressure (altimeter): 30.09 inches Hg (1019.0 mb)
Winds: from the ENE (70 degrees) at 5 MPH (4 knots; 2.1 m/s)
Visibility: 6 or more miles (10+ km)
Ceiling: 4200 feet AGL
Clouds: few clouds at 1100 feet AGL
scattered clouds at 2100 feet AGL
broken clouds at 4200 feet AGL
Weather: -SHSN  (light snow showers)

METAR text: EDDS 181120Z VRB01KT 9999 -SHSN SCT014TCU BKN036 00/M02 Q1019 NOSIG
Conditions at: EDDS (STUTTGART/ECHTER, DE) observed 1120 UTC 18 January 2019
Temperature: 0.0°C (32°F)
Dewpoint: -2.0°C (28°F) [RH = 86%]
Pressure (altimeter): 30.09 inches Hg (1019.0 mb)
Winds: variable direction winds at 1 MPH (1 knots; 0.5 m/s)
Visibility: 6 or more miles (10+ km)
Ceiling: 3600 feet AGL
Clouds: scattered clouds at 1400 feet AGL
broken clouds at 3600 feet AGL
Weather: -SHSN  (light snow showers)

METAR text: EDDS 181050Z VRB02KT 9999 -SHSN SCT017TCU BKN038 01/M02 Q1019 NOSIG
Conditions at: EDDS (STUTTGART/ECHTER, DE) observed 1050 UTC 18 January 2019
Temperature: 1.0°C (34°F)
Dewpoint: -2.0°C (28°F) [RH = 80%]
Pressure (altimeter): 30.09 inches Hg (1019.0 mb)
Winds: variable direction winds at 2 MPH (2 knots; 1.0 m/s)
Visibility: 6 or more miles (10+ km)
Ceiling: 3800 feet AGL
Clouds: scattered clouds at 1700 feet AGL
broken clouds at 3800 feet AGL
Weather: -SHSN  (light snow showers)

METAR text: EDDS 181020Z VRB02KT 9999 -SN SCT016 BKN028 01/M02 Q1019 NOSIG
Conditions at: EDDS (STUTTGART/ECHTER, DE) observed 1020 UTC 18 January 2019
Temperature: 1.0°C (34°F)
Dewpoint: -2.0°C (28°F) [RH = 80%]
Pressure (altimeter): 30.09 inches Hg (1019.0 mb)
Winds: variable direction winds at 2 MPH (2 knots; 1.0 m/s)
Visibility: 6 or more miles (10+ km)
Ceiling: 2800 feet AGL
Clouds: scattered clouds at 1600 feet AGL
broken clouds at 2800 feet AGL
Weather: -SN  (light snow)

METAR text: EDDS 180950Z VRB02KT 9999 SCT016 BKN025 01/M03 Q1019 NOSIG
Conditions at: EDDS (STUTTGART/ECHTER, DE) observed 0950 UTC 18 January 2019
Temperature: 1.0°C (34°F)
Dewpoint: -3.0°C (27°F) [RH = 75%]
Pressure (altimeter): 30.09 inches Hg (1019.0 mb)
Winds: variable direction winds at 2 MPH (2 knots; 1.0 m/s)
Visibility: 6 or more miles (10+ km)
Ceiling: 2500 feet AGL
Clouds: scattered clouds at 1600 feet AGL
broken clouds at 2500 feet AGL
Weather: no significant weather observed at this time

METAR text: EDDS 180920Z 24003KT 170V280 9999 SCT018 BKN025 00/M03 Q1019 NOSIG
Conditions at: EDDS (STUTTGART/ECHTER, DE) observed 0920 UTC 18 January 2019
Temperature: 0.0°C (32°F)
Dewpoint: -3.0°C (27°F) [RH = 80%]
Pressure (altimeter): 30.09 inches Hg (1019.0 mb)
Winds: from the WSW (240 degrees) at 3 MPH (3 knots; 1.5 m/s)
Visibility: 6 or more miles (10+ km)
Ceiling: 2500 feet AGL
Clouds: scattered clouds at 1800 feet AGL
broken clouds at 2500 feet AGL
Weather: no significant weather observed at this time

METAR text: EDDS 180850Z 26004KT 9999 FEW011TCU M00/M02 Q1019 NOSIG
Conditions at: EDDS (STUTTGART/ECHTER, DE) observed 0850 UTC 18 January 2019
Temperature: 0.0°C (32°F)
Dewpoint: -2.0°C (28°F) [RH = 86%]
Pressure (altimeter): 30.09 inches Hg (1019.0 mb)
Winds: from the W (260 degrees) at 5 MPH (4 knots; 2.1 m/s)
Visibility: 6 or more miles (10+ km)
Ceiling: at least 12,000 feet AGL
Clouds: few clouds at 1100 feet AGL
Weather: no significant weather observed at this time

METAR text: EDDS 180820Z 24003KT 9999 VCSH FEW011TCU BKN028 M01/M02 Q1018 NOSIG
Conditions at: EDDS (STUTTGART/ECHTER, DE) observed 0820 UTC 18 January 2019
Temperature: -1.0°C (30°F)
Dewpoint: -2.0°C (28°F) [RH = 93%]
Pressure (altimeter): 30.06 inches Hg (1018.0 mb)
Winds: from the WSW (240 degrees) at 3 MPH (3 knots; 1.5 m/s)
Visibility: 6 or more miles (10+ km)
Ceiling: 2800 feet AGL
Clouds: few clouds at 1100 feet AGL
broken clouds at 2800 feet AGL
Weather: VCSH  (showers in vicinity)

METAR text: EDDS 180750Z VRB02KT 9999 VCSH FEW004 FEW011TCU BKN028 M01/M02 Q1018 NOSIG
Conditions at: EDDS (STUTTGART/ECHTER, DE) observed 0750 UTC 18 January 2019
Temperature: -1.0°C (30°F)
Dewpoint: -2.0°C (28°F) [RH = 93%]
Pressure (altimeter): 30.06 inches Hg (1018.0 mb)
Winds: variable direction winds at 2 MPH (2 knots; 1.0 m/s)
Visibility: 6 or more miles (10+ km)
Ceiling: 2800 feet AGL
Clouds: few clouds at 400 feet AGL
few clouds at 1100 feet AGL
broken clouds at 2800 feet AGL
Weather: VCSH  (showers in vicinity)

METAR text: EDDS 180720Z 24004KT 200V290 8000 1800NW -SHSN FEW004 BKN011TCU BKN031 M00/M02 Q1018 TEMPO 4000 SCT011
Conditions at: EDDS (STUTTGART/ECHTER, DE) observed 0720 UTC 18 January 2019
Temperature: 0.0°C (32°F)
Dewpoint: -2.0°C (28°F) [RH = 86%]
Pressure (altimeter): 30.06 inches Hg (1018.0 mb)
Winds: from the WSW (240 degrees) at 5 MPH (4 knots; 2.1 m/s)
Visibility: 5 miles ( 8 km)
Ceiling: 1100 feet AGL
Clouds: few clouds at 400 feet AGL
broken clouds at 1100 feet AGL
broken clouds at 3100 feet AGL
Weather: -SHSN  (light snow showers)

METAR text: EDDS 180650Z 25004KT 220V290 9999 -SHSN FEW010 SCT028TCU M01/M03 Q1017 TEMPO 4000 SHSN
Conditions at: EDDS (STUTTGART/ECHTER, DE) observed 0650 UTC 18 January 2019
Temperature: -1.0°C (30°F)
Dewpoint: -3.0°C (27°F) [RH = 86%]
Pressure (altimeter): 30.03 inches Hg (1017.0 mb)
Winds: from the WSW (250 degrees) at 5 MPH (4 knots; 2.1 m/s)
Visibility: 6 or more miles (10+ km)
Ceiling: at least 12,000 feet AGL
Clouds: few clouds at 1000 feet AGL
scattered clouds at 2800 feet AGL
Weather: -SHSN  (light snow showers)

METAR text: EDDS 180620Z 25007KT 9999 -SHSN FEW015 SCT022TCU M00/M03 Q1017 TEMPO 4500
Conditions at: EDDS (STUTTGART/ECHTER, DE) observed 0620 UTC 18 January 2019
Temperature: 0.0°C (32°F)
Dewpoint: -3.0°C (27°F) [RH = 80%]
Pressure (altimeter): 30.03 inches Hg (1017.0 mb)
Winds: from the WSW (250 degrees) at 8 MPH (7 knots; 3.6 m/s)
Visibility: 6 or more miles (10+ km)
Ceiling: at least 12,000 feet AGL
Clouds: few clouds at 1500 feet AGL
scattered clouds at 2200 feet AGL
Weather: -SHSN  (light snow showers)

METAR text: EDDS 180550Z 26010KT 9999 FEW040 M00/M03 Q1017 TEMPO 4500 -SHSN BKN020TCU
Conditions at: EDDS (STUTTGART/ECHTER, DE) observed 0550 UTC 18 January 2019
Temperature: 0.0°C (32°F)
Dewpoint: -3.0°C (27°F) [RH = 80%]
Pressure (altimeter): 30.03 inches Hg (1017.0 mb)
Winds: from the W (260 degrees) at 12 MPH (10 knots; 5.1 m/s)
Visibility: 6 or more miles (10+ km)
Ceiling: at least 12,000 feet AGL
Clouds: few clouds at 4000 feet AGL
Weather: no significant weather observed at this time

METAR text: EDDS 180520Z 26009KT 9999 BKN048 M00/M03 Q1016 TEMPO 4500 -SHSN BKN020TCU
Conditions at: EDDS (STUTTGART/ECHTER, DE) observed 0520 UTC 18 January 2019
Temperature: 0.0°C (32°F)
Dewpoint: -3.0°C (27°F) [RH = 80%]
Pressure (altimeter): 30.00 inches Hg (1016.0 mb)
Winds: from the W (260 degrees) at 10 MPH (9 knots; 4.6 m/s)
Visibility: 6 or more miles (10+ km)
Ceiling: 4800 feet AGL
Clouds: broken clouds at 4800 feet AGL
Weather: no significant weather observed at this time

METAR text: EDDS 180450Z 25007KT 9999 BKN044 M01/M03 Q1016
Conditions at: EDDS (STUTTGART/ECHTER, DE) observed 0450 UTC 18 January 2019
Temperature: -1.0°C (30°F)
Dewpoint: -3.0°C (27°F) [RH = 86%]
Pressure (altimeter): 30.00 inches Hg (1016.0 mb)
Winds: from the WSW (250 degrees) at 8 MPH (7 knots; 3.6 m/s)
Visibility: 6 or more miles (10+ km)
Ceiling: 4400 feet AGL
Clouds: broken clouds at 4400 feet AGL
Weather: no significant weather observed at this time

METAR text: EDDS 180420Z 25006KT 9999 BKN042 M00/M03 Q1016
Conditions at: EDDS (STUTTGART/ECHTER, DE) observed 0420 UTC 18 January 2019
Temperature: 0.0°C (32°F)
Dewpoint: -3.0°C (27°F) [RH = 80%]
Pressure (altimeter): 30.00 inches Hg (1016.0 mb)
Winds: from the WSW (250 degrees) at 7 MPH (6 knots; 3.1 m/s)
Visibility: 6 or more miles (10+ km)
Ceiling: 4200 feet AGL
Clouds: broken clouds at 4200 feet AGL
Weather: no significant weather observed at this time

METAR text: EDDS 180350Z 25005KT 220V280 9999 -SN BKN042 M00/M03 Q1015
Conditions at: EDDS (STUTTGART/ECHTER, DE) observed 0350 UTC 18 January 2019
Temperature: 0.0°C (32°F)
Dewpoint: -3.0°C (27°F) [RH = 80%]
Pressure (altimeter): 29.97 inches Hg (1015.0 mb)
Winds: from the WSW (250 degrees) at 6 MPH (5 knots; 2.6 m/s)
Visibility: 6 or more miles (10+ km)
Ceiling: 4200 feet AGL
Clouds: broken clouds at 4200 feet AGL
Weather: -SN  (light snow)

METAR text: EDDS 180320Z 25006KT 220V280 9999 -SN BKN046 M00/M03 Q1015
Conditions at: EDDS (STUTTGART/ECHTER, DE) observed 0320 UTC 18 January 2019
Temperature: 0.0°C (32°F)
Dewpoint: -3.0°C (27°F) [RH = 80%]
Pressure (altimeter): 29.97 inches Hg (1015.0 mb)
Winds: from the WSW (250 degrees) at 7 MPH (6 knots; 3.1 m/s)
Visibility: 6 or more miles (10+ km)
Ceiling: 4600 feet AGL
Clouds: broken clouds at 4600 feet AGL
Weather: -SN  (light snow)

METAR text: EDDS 180250Z 25007KT 9999 SCT046 M01/M03 Q1015
Conditions at: EDDS (STUTTGART/ECHTER, DE) observed 0250 UTC 18 January 2019
Temperature: -1.0°C (30°F)
Dewpoint: -3.0°C (27°F) [RH = 86%]
Pressure (altimeter): 29.97 inches Hg (1015.0 mb)
Winds: from the WSW (250 degrees) at 8 MPH (7 knots; 3.6 m/s)
Visibility: 6 or more miles (10+ km)
Ceiling: at least 12,000 feet AGL
Clouds: scattered clouds at 4600 feet AGL
Weather: no significant weather observed at this time

METAR text: EDDS 180220Z 27009KT 9999 FEW020 SCT046 M00/M03 Q1014
Conditions at: EDDS (STUTTGART/ECHTER, DE) observed 0220 UTC 18 January 2019
Temperature: 0.0°C (32°F)
Dewpoint: -3.0°C (27°F) [RH = 80%]
Pressure (altimeter): 29.94 inches Hg (1014.0 mb)
Winds: from the W (270 degrees) at 10 MPH (9 knots; 4.6 m/s)
Visibility: 6 or more miles (10+ km)
Ceiling: at least 12,000 feet AGL
Clouds: few clouds at 2000 feet AGL
scattered clouds at 4600 feet AGL
Weather: no significant weather observed at this time

METAR text: EDDS 180150Z 25009KT 9999 FEW020 BKN046 M00/M03 Q1014
Conditions at: EDDS (STUTTGART/ECHTER, DE) observed 0150 UTC 18 January 2019
Temperature: 0.0°C (32°F)
Dewpoint: -3.0°C (27°F) [RH = 80%]
Pressure (altimeter): 29.94 inches Hg (1014.0 mb)
Winds: from the WSW (250 degrees) at 10 MPH (9 knots; 4.6 m/s)
Visibility: 6 or more miles (10+ km)
Ceiling: 4600 feet AGL
Clouds: few clouds at 2000 feet AGL
broken clouds at 4600 feet AGL
Weather: no significant weather observed at this time

METAR text: EDDS 180120Z 25007KT 200V270 9999 FEW020 SCT044 M01/M03 Q1014
Conditions at: EDDS (STUTTGART/ECHTER, DE) observed 0120 UTC 18 January 2019
Temperature: -1.0°C (30°F)
Dewpoint: -3.0°C (27°F) [RH = 86%]
Pressure (altimeter): 29.94 inches Hg (1014.0 mb)
Winds: from the WSW (250 degrees) at 8 MPH (7 knots; 3.6 m/s)
Visibility: 6 or more miles (10+ km)
Ceiling: at least 12,000 feet AGL
Clouds: few clouds at 2000 feet AGL
scattered clouds at 4400 feet AGL
Weather: no significant weather observed at this time

Forecast for: EDDS (STUTTGART/ECHTER, DE)
Text: TAF EDDS 191100Z 1912/2012 13004KT 9999 SCT012 BKN020
Forecast period: 1200 UTC 19 January 2019 to 1200 UTC 20 January 2019
Forecast type: FROM: standard forecast or significant change
Winds: from the SE (130 degrees) at 5 MPH (4 knots; 2.1 m/s)
Visibility: 6 or more miles 10+ km)
Ceiling: 2000 feet AGL
Clouds: scattered clouds at 1200 feet AGL
broken clouds at 2000 feet AGL
Weather: no significant weather forecast for this period
Text: TEMPO 1912/1915 BKN013
Forecast period: 1200 to 1500 UTC 19 January 2019
Forecast type: TEMPORARY: The following changes expected for less than half the time period
Visibility: missing
Ceiling: 1300 feet AGL
Clouds: broken clouds at 1300 feet AGL
Weather: no significant weather forecast for this period